Time;durP1;ratioP1;P1;durP2;ratioP2;P2;SDS_P1;SDS_P2;PMS_P1;PMS_P2;Temp;Humidity;BMP_temperature;BMP_pressure;BME280_temperature;BME280_humidity;BME280_pressure;Samples;Min_cycle;Max_cycle;Signal;HPM_P1;HPM_P2
2022/03/23 00:02:12;;;;;;;22.90;13.10;;;;;;;0.87;55.72;102779.02;107753;1242;70430;-67
2022/03/23 00:04:41;;;;;;;31.30;16.00;;;;;;;0.75;53.45;102779.87;107823;1243;70970;-65
2022/03/23 00:07:11;;;;;;;36.50;17.40;;;;;;;0.60;53.42;102779.14;107797;1243;74809;-65
2022/03/23 00:09:40;;;;;;;37.00;19.20;;;;;;;0.54;54.58;102779.48;107830;1243;61805;-69
2022/03/23 00:12:25;;;;;;;35.90;18.20;;;;;;;0.59;55.12;102778.46;107828;1243;61690;-70
2022/03/23 00:14:54;;;;;;;31.80;15.30;;;;;;;0.57;54.89;102778.97;107777;1243;74121;-68
2022/03/23 00:17:23;;;;;;;27.90;16.30;;;;;;;0.49;53.03;102779.13;107621;1243;72593;-70
2022/03/23 00:19:52;;;;;;;37.60;17.70;;;;;;;0.37;53.30;102777.21;107623;1244;68089;-69
2022/03/23 00:22:26;;;;;;;34.60;17.30;;;;;;;0.32;54.97;102774.27;107684;1243;72904;-68
2022/03/23 00:24:58;;;;;;;43.00;18.20;;;;;;;0.28;55.08;102770.84;107652;1243;59572;-68
2022/03/23 00:27:27;;;;;;;38.80;18.20;;;;;;;0.27;55.36;102770.32;107722;1243;59702;-68
2022/03/23 00:29:56;;;;;;;38.20;17.90;;;;;;;0.25;55.38;102771.17;107656;1243;71504;-68
2022/03/23 00:32:25;;;;;;;33.60;15.50;;;;;;;0.32;56.01;102772.05;107687;1242;70384;-67
2022/03/23 00:34:54;;;;;;;32.50;16.00;;;;;;;0.35;56.76;102767.27;107625;1243;68243;-67
2022/03/23 00:37:23;;;;;;;29.20;15.00;;;;;;;0.30;57.50;102763.65;107646;1243;73976;-67
2022/03/23 00:39:52;;;;;;;32.00;14.90;;;;;;;0.30;57.38;102766.38;107633;1243;59567;-67
2022/03/23 00:42:21;;;;;;;29.20;15.60;;;;;;;0.23;57.95;102761.56;107647;1244;60427;-66
2022/03/23 00:44:51;;;;;;;27.40;14.80;;;;;;;0.22;57.67;102762.76;107698;1243;74344;-66
2022/03/23 00:47:20;;;;;;;34.90;16.30;;;;;;;0.21;57.78;102761.72;107916;1244;71026;-66
2022/03/23 00:49:49;;;;;;;27.40;14.90;;;;;;;0.16;58.02;102760.35;107604;1243;68931;-66
2022/03/23 00:52:18;;;;;;;29.70;15.30;;;;;;;0.09;57.98;102756.54;107781;1243;73166;-66
2022/03/23 00:54:47;;;;;;;26.70;15.10;;;;;;;0.03;58.07;102761.48;107626;1244;59621;-67
2022/03/23 00:57:16;;;;;;;25.20;15.00;;;;;;;-0.07;58.35;102759.06;107586;1246;59758;-66
2022/03/23 00:59:45;;;;;;;31.40;15.20;;;;;;;-0.14;58.86;102758.00;107931;1243;75479;-66
2022/03/23 01:02:14;;;;;;;29.20;15.40;;;;;;;-0.16;58.94;102753.70;108012;1243;70670;-64
2022/03/23 01:04:44;;;;;;;29.10;14.10;;;;;;;-0.17;58.64;102752.15;107528;1243;68703;-66
2022/03/23 01:07:13;;;;;;;33.70;16.00;;;;;;;-0.18;59.02;102747.00;107711;1242;73129;-66
2022/03/23 01:09:42;;;;;;;27.30;14.10;;;;;;;-0.17;58.97;102747.36;107745;1243;59397;-67
2022/03/23 01:12:11;;;;;;;30.70;15.00;;;;;;;-0.21;59.40;102742.55;107904;1243;59507;-65
2022/03/23 01:14:41;;;;;;;30.30;14.20;;;;;;;-0.21;59.29;102741.17;107847;1243;73125;-68
2022/03/23 01:17:10;;;;;;;36.00;15.50;;;;;;;-0.26;59.46;102737.90;107855;1244;69558;-65
2022/03/23 01:19:40;;;;;;;30.90;14.50;;;;;;;-0.34;59.45;102737.00;107959;1243;70550;-68
2022/03/23 01:22:09;;;;;;;35.10;15.40;;;;;;;-0.39;61.49;102737.31;108133;1243;74411;-67
2022/03/23 01:24:37;;;;;;;30.70;15.50;;;;;;;-0.44;59.98;102734.04;107676;1243;61360;-69
2022/03/23 01:27:06;;;;;;;31.40;15.50;;;;;;;-0.51;59.97;102739.99;107826;1243;61624;-69
2022/03/23 01:29:36;;;;;;;30.10;15.70;;;;;;;-0.56;59.92;102738.59;107718;1243;73808;-69
2022/03/23 01:32:08;;;;;;;28.40;15.10;;;;;;;-0.60;60.29;102736.52;107733;1245;69562;-66
2022/03/23 01:34:37;;;;;;;26.60;15.50;;;;;;;-0.63;60.45;102737.02;107720;1243;68818;-67
2022/03/23 01:37:06;;;;;;;31.20;15.50;;;;;;;-0.70;61.08;102732.34;107653;1244;74739;-68
2022/03/23 01:39:36;;;;;;;27.20;14.80;;;;;;;-0.74;60.54;102732.64;107780;1243;59547;-68
2022/03/23 01:42:05;;;;;;;27.60;15.00;;;;;;;-0.76;61.39;102733.15;108302;1243;62175;-67
2022/03/23 01:44:34;;;;;;;28.50;14.90;;;;;;;-0.81;60.33;102734.48;107991;1243;74403;-68
2022/03/23 01:47:15;;;;;;;29.10;14.70;;;;;;;-0.86;60.43;102735.66;107743;1244;71702;-68
2022/03/23 01:49:49;;;;;;;33.20;14.80;;;;;;;-0.94;59.31;102733.17;107684;1243;69954;-66
2022/03/23 01:52:22;;;;;;;31.30;15.50;;;;;;;-0.99;60.44;102737.26;107703;1244;71830;-67
2022/03/23 01:54:52;;;;;;;27.50;15.20;;;;;;;-0.99;61.66;102738.46;107768;1243;60145;-65
2022/03/23 01:57:22;;;;;;;31.50;15.30;;;;;;;-0.99;62.13;102735.55;108049;1242;61088;-65
2022/03/23 01:59:51;;;;;;;27.50;15.00;;;;;;;-0.96;61.94;102734.89;107581;1246;73022;-65
2022/03/23 02:02:20;;;;;;;34.20;15.30;;;;;;;-0.97;61.99;102732.48;107545;1246;70407;-68
2022/03/23 02:04:57;;;;;;;30.50;14.80;;;;;;;-1.01;61.47;102731.94;107609;1244;69762;-65
2022/03/23 02:07:26;;;;;;;30.30;16.10;;;;;;;-1.05;62.04;102736.02;107549;1244;75344;-66
2022/03/23 02:09:55;;;;;;;34.50;15.70;;;;;;;-1.07;61.42;102736.35;107778;1243;59637;-65
2022/03/23 02:12:30;;;;;;;33.00;16.60;;;;;;;-1.12;61.54;102735.80;107614;1244;59462;-65
2022/03/23 02:15:14;;;;;;;38.90;17.80;;;;;;;-1.17;61.60;102738.98;107575;1245;74297;-65
2022/03/23 02:17:44;;;;;;;32.90;16.20;;;;;;;-1.18;62.64;102735.73;107673;1244;72551;-66
2022/03/23 02:20:13;;;;;;;35.10;16.80;;;;;;;-1.22;61.38;102734.33;107602;1246;68350;-65
2022/03/23 02:22:42;;;;;;;34.40;15.20;;;;;;;-1.25;62.26;102736.69;107635;1246;71420;-64
2022/03/23 02:25:11;;;;;;;34.50;18.70;;;;;;;-1.24;61.86;102733.64;107708;1244;59713;-65
2022/03/23 02:27:40;;;;;;;37.80;16.90;;;;;;;-1.24;61.63;102735.52;107832;1244;61138;-64
2022/03/23 02:30:10;;;;;;;30.80;16.20;;;;;;;-1.27;60.76;102735.83;107858;1244;73702;-64
2022/03/23 02:32:39;;;;;;;26.30;14.20;;;;;;;-1.29;60.75;102735.48;107889;1243;69586;-63
2022/03/23 02:35:10;;;;;;;37.80;16.70;;;;;;;-1.33;61.09;102733.04;107742;1244;69143;-62
2022/03/23 02:37:40;;;;;;;29.60;16.20;;;;;;;-1.38;60.92;102732.48;107593;1246;72007;-64
2022/03/23 02:40:10;;;;;;;28.30;15.70;;;;;;;-1.43;62.05;102734.48;107654;1244;61553;-64
2022/03/23 02:42:40;;;;;;;28.90;16.30;;;;;;;-1.40;62.31;102731.44;107711;1243;61785;-65
2022/03/23 02:45:10;;;;;;;30.10;15.90;;;;;;;-1.44;62.33;102729.17;107775;1244;76286;-65
2022/03/23 02:47:41;;;;;;;33.50;16.10;;;;;;;-1.45;62.25;102731.21;107707;1244;69986;-67
2022/03/23 02:50:10;;;;;;;31.50;16.60;;;;;;;-1.47;62.47;102731.88;107700;1244;67988;-67
2022/03/23 03:01:52;;;;;;;27.60;14.10;;;;;;;-1.51;62.78;102729.11;107724;1244;73910;-67
2022/03/23 03:04:08;;;;;;;33.40;16.50;;;;;;;-1.54;62.74;102733.16;107691;1244;71926;-64
2022/03/23 03:06:37;;;;;;;30.20;15.80;;;;;;;-1.58;62.86;102728.86;107627;1245;68334;-65
2022/03/23 03:09:06;;;;;;;35.30;18.20;;;;;;;-1.62;63.30;102733.10;107652;1244;72278;-64
2022/03/23 03:11:35;;;;;;;33.10;16.70;;;;;;;-1.70;63.39;102732.34;107584;1244;60905;-66
2022/03/23 03:14:04;;;;;;;34.10;17.30;;;;;;;-1.74;63.99;102736.38;107526;1244;62183;-64
2022/03/23 03:16:33;;;;;;;33.30;16.90;;;;;;;-1.77;64.01;102732.59;107621;1244;72975;-66
2022/03/23 03:19:09;;;;;;;31.80;16.70;;;;;;;-1.81;63.82;102736.14;107636;1244;71817;-66
2022/03/23 03:21:38;;;;;;;30.10;15.80;;;;;;;-1.81;64.47;102733.08;107434;1245;68712;-65
2022/03/23 03:24:07;;;;;;;31.00;15.60;;;;;;;-1.82;64.32;102733.74;107518;1244;71326;-65
2022/03/23 03:26:36;;;;;;;32.20;15.80;;;;;;;-1.83;64.16;102734.74;107436;1244;59640;-66
2022/03/23 03:29:06;;;;;;;26.50;15.70;;;;;;;-1.82;64.05;102734.40;107677;1243;61343;-66
2022/03/23 03:31:35;;;;;;;25.10;15.20;;;;;;;-1.86;63.76;102733.86;107328;1245;76323;-66
2022/03/23 03:34:04;;;;;;;30.50;16.40;;;;;;;-1.90;62.81;102735.86;107318;1244;73179;-65
2022/03/23 03:36:32;;;;;;;30.10;16.30;;;;;;;-1.96;63.27;102740.77;107543;1244;70432;-66
2022/03/23 03:39:03;;;;;;;35.50;16.40;;;;;;;-1.99;63.91;102739.87;107466;1244;74723;-66
2022/03/23 03:41:32;;;;;;;29.50;15.80;;;;;;;-2.03;64.24;102739.83;107548;1244;61963;-67
2022/03/23 03:44:01;;;;;;;36.90;16.60;;;;;;;-2.04;64.19;102744.08;107454;1246;60658;-65
2022/03/23 03:46:30;;;;;;;30.90;16.20;;;;;;;-2.10;63.46;102744.34;107606;1244;71321;-65
2022/03/23 03:48:59;;;;;;;31.20;15.30;;;;;;;-2.18;64.86;102743.38;107522;1245;70822;-65
2022/03/23 03:51:29;;;;;;;34.00;16.50;;;;;;;-2.17;64.28;102744.41;107584;1244;68737;-66
2022/03/23 03:53:58;;;;;;;34.10;16.80;;;;;;;-2.19;63.89;102746.44;107559;1246;72125;-66
2022/03/23 03:56:27;;;;;;;27.40;16.10;;;;;;;-2.23;63.17;102750.14;107496;1246;61445;-65
2022/03/23 03:58:56;;;;;;;33.50;17.10;;;;;;;-2.30;63.51;102752.77;107532;1244;61518;-67
2022/03/23 04:01:25;;;;;;;28.40;16.20;;;;;;;-2.42;65.01;102750.73;107546;1245;75154;-66
2022/03/23 04:03:54;;;;;;;32.90;16.10;;;;;;;-2.49;64.75;102748.44;107619;1244;69982;-66
2022/03/23 04:06:23;;;;;;;32.30;15.70;;;;;;;-2.55;64.57;102746.80;107674;1244;69538;-67
2022/03/23 04:08:52;;;;;;;32.40;16.20;;;;;;;-2.57;65.67;102747.45;107637;1246;71541;-68
2022/03/23 04:11:21;;;;;;;28.00;14.20;;;;;;;-2.58;65.11;102746.59;107863;1244;62966;-66
2022/03/23 04:13:50;;;;;;;30.70;15.20;;;;;;;-2.61;64.48;102747.07;107789;1244;62547;-67
2022/03/23 04:16:19;;;;;;;34.40;16.00;;;;;;;-2.62;63.72;102743.96;108036;1244;74790;-67
2022/03/23 04:18:49;;;;;;;34.60;19.10;;;;;;;-2.62;64.72;102748.24;107600;1244;72475;-70
2022/03/23 04:21:17;;;;;;;33.80;16.60;;;;;;;-2.59;65.63;102750.50;107642;1244;70552;-68
2022/03/23 04:23:47;;;;;;;33.80;18.10;;;;;;;-2.56;65.98;102746.80;107804;1244;71666;-67
2022/03/23 04:26:16;;;;;;;38.90;18.20;;;;;;;-2.51;66.76;102742.94;107699;1244;59609;-67
2022/03/23 04:28:46;;;;;;;35.80;17.50;;;;;;;-2.42;66.42;102746.64;107684;1244;58819;-67
2022/03/23 04:31:15;;;;;;;29.50;15.20;;;;;;;-2.42;65.66;102747.50;107708;1244;74492;-65
2022/03/23 04:33:44;;;;;;;29.50;13.20;;;;;;;-2.46;64.21;102748.64;107757;1243;71897;-64
2022/03/23 04:36:14;;;;;;;29.70;12.60;;;;;;;-2.57;64.78;102750.35;107719;1245;68742;-63
2022/03/23 04:38:43;;;;;;;38.40;18.60;;;;;;;-2.67;65.17;102746.79;107503;1243;71591;-65
2022/03/23 04:41:12;;;;;;;44.70;19.50;;;;;;;-2.73;65.32;102745.02;107648;1244;60213;-67
2022/03/23 04:43:41;;;;;;;40.70;20.00;;;;;;;-2.75;64.93;102745.65;107705;1242;61005;-68
2022/03/23 04:46:10;;;;;;;45.60;19.50;;;;;;;-2.72;64.96;102747.41;107542;1243;76089;-67
2022/03/23 04:48:39;;;;;;;44.50;22.30;;;;;;;-2.68;64.48;102748.66;107697;1244;69967;-67
2022/03/23 04:51:08;;;;;;;31.90;14.70;;;;;;;-2.61;65.01;102749.77;107844;1244;69121;-64
2022/03/23 04:53:37;;;;;;;35.90;18.30;;;;;;;-2.58;64.17;102752.39;107872;1243;72333;-65
2022/03/23 04:56:07;;;;;;;34.70;16.60;;;;;;;-2.58;64.12;102749.66;107755;1243;61281;-71
2022/03/23 04:58:37;;;;;;;37.00;19.90;;;;;;;-2.56;63.84;102750.02;107765;1243;62217;-70
2022/03/23 05:01:05;;;;;;;41.70;19.70;;;;;;;-2.49;64.22;102749.29;107702;1243;73824;-71
2022/03/23 05:03:35;;;;;;;38.10;17.50;;;;;;;-2.42;63.77;102749.73;107575;1243;70318;-71
2022/03/23 05:06:04;;;;;;;38.00;17.80;;;;;;;-2.34;63.44;102748.11;107736;1243;68994;-71
2022/03/23 05:08:33;;;;;;;32.70;16.80;;;;;;;-2.29;63.30;102750.23;107781;1243;71160;-72
2022/03/23 05:11:02;;;;;;;47.30;18.20;;;;;;;-2.24;63.10;102750.81;107862;1243;59568;-74
2022/03/23 05:13:33;;;;;;;42.60;21.30;;;;;;;-2.19;63.35;102748.67;107800;1244;59584;-73
2022/03/23 05:16:03;;;;;;;45.20;20.50;;;;;;;-2.05;64.08;102748.67;107769;1243;72490;-72
2022/03/23 05:18:33;;;;;;;49.00;21.50;;;;;;;-1.94;63.74;102749.48;107918;1244;70686;-65
2022/03/23 05:21:02;;;;;;;43.20;20.50;;;;;;;-1.83;63.17;102747.05;107672;1243;71513;-70
2022/03/23 05:23:31;;;;;;;48.30;21.10;;;;;;;-1.69;63.00;102748.92;107567;1244;71837;-71
2022/03/23 05:26:01;;;;;;;43.70;21.30;;;;;;;-1.56;62.97;102746.15;107723;1243;59546;-72
2022/03/23 05:28:33;;;;;;;44.20;21.00;;;;;;;-1.43;62.60;102747.98;107706;1244;58926;-70
2022/03/23 05:31:02;;;;;;;38.40;19.20;;;;;;;-1.27;62.63;102750.03;107737;1244;72395;-71
2022/03/23 05:33:31;;;;;;;44.10;19.80;;;;;;;-1.12;61.44;102752.04;107619;1244;71151;-71
2022/03/23 05:36:00;;;;;;;39.10;18.90;;;;;;;-0.98;61.07;102756.42;107761;1243;67924;-68
2022/03/23 05:38:29;;;;;;;37.50;19.20;;;;;;;-0.83;60.46;102754.66;107823;1243;72412;-69
2022/03/23 05:40:58;;;;;;;42.80;19.80;;;;;;;-0.67;60.19;102756.83;107862;1243;59667;-71
2022/03/23 05:43:27;;;;;;;42.10;20.10;;;;;;;-0.53;59.65;102758.29;108039;1243;59726;-71
2022/03/23 05:45:56;;;;;;;34.60;17.70;;;;;;;-0.38;59.64;102752.91;107924;1243;71979;-70
2022/03/23 05:48:25;;;;;;;40.20;20.30;;;;;;;-0.24;58.90;102751.44;107681;1244;70331;-70
2022/03/23 05:50:59;;;;;;;42.50;18.30;;;;;;;-0.11;58.47;102751.49;108565;1244;69699;-71
2022/03/23 05:53:28;;;;;;;34.90;16.00;;;;;;;-0.02;58.18;102751.36;107481;1246;71625;-70
2022/03/23 05:55:58;;;;;;;36.00;16.60;;;;;;;-0.01;57.86;102749.66;107700;1243;59623;-69
2022/03/23 05:58:26;;;;;;;26.80;14.40;;;;;;;-0.00;58.24;102753.42;108893;1243;61284;-71
2022/03/23 06:00:56;;;;;;;30.60;16.00;;;;;;;0.05;58.60;102753.96;107782;1243;72998;-71
2022/03/23 06:03:25;;;;;;;35.10;15.60;;;;;;;0.08;59.44;102752.60;107686;1245;71929;-70
2022/03/23 06:05:55;;;;;;;30.10;16.60;;;;;;;0.07;59.88;102755.52;107680;1243;70123;-71
2022/03/23 06:08:24;;;;;;;34.00;17.40;;;;;;;0.08;60.27;102754.33;107612;1243;73365;-70
2022/03/23 06:10:54;;;;;;;30.60;16.00;;;;;;;0.15;60.60;102754.17;107616;1243;62110;-71
2022/03/23 06:13:23;;;;;;;42.90;20.30;;;;;;;0.25;60.39;102752.48;107533;1243;62283;-70
2022/03/23 06:15:52;;;;;;;41.60;21.30;;;;;;;0.40;60.51;102750.98;107885;1243;75850;-72
2022/03/23 06:18:21;;;;;;;34.20;15.60;;;;;;;0.58;59.66;102748.96;107612;1243;73463;-71
2022/03/23 06:20:50;;;;;;;31.10;16.70;;;;;;;0.79;59.14;102748.81;107645;1243;70341;-71
2022/03/23 06:23:19;;;;;;;42.40;17.70;;;;;;;0.96;58.45;102743.50;107600;1243;75071;-72
2022/03/23 06:25:48;;;;;;;36.80;18.00;;;;;;;1.11;57.99;102740.41;107553;1243;61133;-70
2022/03/23 06:28:17;;;;;;;36.30;18.70;;;;;;;1.23;57.92;102745.38;107498;1246;62010;-71
2022/03/23 06:30:46;;;;;;;40.90;21.20;;;;;;;1.37;57.58;102746.73;107620;1243;74613;-70
2022/03/23 06:33:15;;;;;;;35.50;18.80;;;;;;;1.54;57.31;102746.02;107294;1246;72498;-71
2022/03/23 06:35:45;;;;;;;42.20;22.50;;;;;;;1.73;56.79;102741.15;107647;1243;71233;-72
2022/03/23 06:38:14;;;;;;;35.30;17.20;;;;;;;1.86;56.64;102741.45;107496;1244;72377;-71
2022/03/23 06:40:44;;;;;;;39.60;20.00;;;;;;;2.03;56.16;102738.97;107249;1243;479910;-72
2022/03/23 06:43:13;;;;;;;34.70;16.40;;;;;;;2.20;55.79;102732.70;107768;1243;60052;-71
2022/03/23 06:45:43;;;;;;;38.80;19.40;;;;;;;2.38;55.34;102734.48;107688;1244;74635;-73
2022/03/23 06:48:12;;;;;;;35.50;19.10;;;;;;;2.54;54.65;102733.69;107779;1243;71434;-72
2022/03/23 06:50:41;;;;;;;39.30;18.80;;;;;;;2.67;54.60;102730.00;107747;1244;69516;-72
2022/03/23 06:53:10;;;;;;;36.00;18.70;;;;;;;2.89;54.00;102729.48;107779;1243;71543;-71
2022/03/23 06:55:39;;;;;;;35.70;20.00;;;;;;;3.10;53.35;102725.52;107740;1243;59960;-73
2022/03/23 06:58:09;;;;;;;41.90;20.00;;;;;;;3.31;53.06;102719.80;107746;1245;60538;-73
2022/03/23 07:00:39;;;;;;;43.60;23.70;;;;;;;3.57;52.37;102712.98;107608;1243;75752;-73
2022/03/23 07:03:12;;;;;;;43.40;21.80;;;;;;;3.82;51.89;102714.40;107828;1243;72649;-75
2022/03/23 07:05:45;;;;;;;39.90;20.50;;;;;;;4.06;50.92;102716.17;107690;1245;69434;-73
2022/03/23 07:11:09;;;;;;;44.80;22.30;;;;;;;4.55;50.12;102710.98;107662;1243;59577;-70
2022/03/23 07:13:41;;;;;;;38.10;17.70;;;;;;;4.77;49.98;102707.87;108018;1243;61182;-72
2022/03/23 07:16:14;;;;;;;39.00;18.90;;;;;;;5.01;48.99;102706.26;108002;1243;75379;-73
2022/03/23 07:18:49;;;;;;;45.70;20.80;;;;;;;5.26;47.89;102701.84;108407;1244;71694;-71
2022/03/23 07:21:19;;;;;;;37.40;19.00;;;;;;;5.51;47.09;102698.77;107929;1243;71665;-71
2022/03/23 07:23:48;;;;;;;37.60;20.10;;;;;;;5.72;46.52;102697.48;107382;1243;74743;-72
2022/03/23 07:26:18;;;;;;;36.90;20.00;;;;;;;5.95;46.02;102696.50;107797;1243;60152;-71
2022/03/23 07:28:47;;;;;;;36.00;17.70;;;;;;;6.17;45.60;102699.33;107713;1243;61016;-73
2022/03/23 07:31:16;;;;;;;42.60;22.00;;;;;;;6.39;45.42;102699.87;107418;1245;75318;-74
2022/03/23 07:33:45;;;;;;;37.60;18.80;;;;;;;6.60;44.75;102703.50;107672;1244;73593;-74
2022/03/23 07:36:14;;;;;;;37.70;20.40;;;;;;;6.79;43.98;102699.08;107909;1243;71604;-71
2022/03/23 07:38:43;;;;;;;43.10;20.40;;;;;;;6.94;43.60;102695.75;107761;1245;72383;-72
2022/03/23 07:41:12;;;;;;;37.80;20.00;;;;;;;7.09;43.30;102693.42;107636;1243;59551;-70
2022/03/23 07:43:41;;;;;;;38.80;19.10;;;;;;;7.28;42.89;102687.92;107726;1243;60004;-69
2022/03/23 07:46:10;;;;;;;46.90;21.70;;;;;;;7.45;42.20;102681.38;107740;1243;72854;-69
2022/03/23 07:48:39;;;;;;;40.70;19.80;;;;;;;7.62;42.31;102683.33;107577;1243;72488;-71
2022/03/23 07:51:08;;;;;;;34.20;18.40;;;;;;;7.84;42.16;102682.84;107711;1244;67847;-73
2022/03/23 07:53:38;;;;;;;38.70;21.00;;;;;;;8.07;41.33;102684.06;107632;1244;74312;-73
2022/03/23 07:56:07;;;;;;;34.10;17.20;;;;;;;8.28;40.76;102682.20;107610;1244;62057;-72
2022/03/23 07:58:36;;;;;;;31.40;15.40;;;;;;;8.52;41.00;102679.05;107681;1244;61275;-77
2022/03/23 08:01:05;;;;;;;37.90;18.10;;;;;;;8.73;40.76;102671.58;108065;1243;75073;-74
2022/03/23 08:03:34;;;;;;;27.30;15.30;;;;;;;8.93;39.72;102668.27;108023;1244;71236;-72
2022/03/23 08:06:03;;;;;;;29.40;15.70;;;;;;;9.14;38.02;102661.14;107697;1243;71491;-75
2022/03/23 08:08:32;;;;;;;31.70;15.40;;;;;;;9.31;38.09;102660.00;107702;1243;71941;-73
2022/03/23 08:11:01;;;;;;;27.70;13.70;;;;;;;9.54;37.94;102651.36;107911;1244;59636;-70
2022/03/23 08:13:30;;;;;;;24.70;13.00;;;;;;;9.80;37.66;102650.69;107855;1243;60050;-71
2022/03/23 08:16:04;;;;;;;23.40;10.80;;;;;;;10.03;36.54;102645.11;107774;1243;72403;-70
2022/03/23 08:18:33;;;;;;;19.80;10.80;;;;;;;10.18;35.49;102641.89;108036;1244;73361;-72
2022/03/23 08:21:02;;;;;;;27.00;12.70;;;;;;;10.31;35.29;102638.79;107708;1244;72262;-70
2022/03/23 08:23:32;;;;;;;25.70;14.10;;;;;;;10.48;35.79;102632.36;107996;1243;72897;-72
2022/03/23 08:26:04;;;;;;;28.50;13.40;;;;;;;10.69;35.29;102629.55;107799;1245;59976;-71
2022/03/23 08:28:34;;;;;;;22.30;11.60;;;;;;;10.88;35.29;102621.23;107771;1243;61346;-70
2022/03/23 08:31:03;;;;;;;24.00;11.60;;;;;;;11.08;34.46;102624.03;107747;1244;72439;-72
2022/03/23 08:33:34;;;;;;;21.80;11.40;;;;;;;11.20;34.34;102618.11;107815;1243;70450;-70
2022/03/23 08:36:06;;;;;;;23.80;10.40;;;;;;;11.33;34.40;102616.28;107893;1243;68789;-71
2022/03/23 08:38:37;;;;;;;20.00;10.30;;;;;;;11.49;33.72;102613.99;107870;1244;71938;-72
2022/03/23 08:41:06;;;;;;;18.90;9.60;;;;;;;11.65;33.28;102608.36;107645;1245;59492;-71
2022/03/23 08:43:35;;;;;;;21.20;10.60;;;;;;;11.77;32.83;102611.09;107802;1244;62505;-69
2022/03/23 08:46:05;;;;;;;18.30;9.70;;;;;;;11.93;33.14;102606.88;107820;1243;74277;-71
2022/03/23 08:48:36;;;;;;;14.70;6.50;;;;;;;12.06;31.56;102608.00;107887;1243;71015;-70
2022/03/23 08:51:04;;;;;;;18.00;7.10;;;;;;;12.14;31.71;102604.96;107718;1243;71593;-71
2022/03/23 08:53:34;;;;;;;16.80;8.80;;;;;;;12.23;31.24;102603.30;107670;1243;73665;-71
2022/03/23 08:56:03;;;;;;;18.80;8.50;;;;;;;12.29;31.16;102598.66;107714;1243;61488;-70
2022/03/23 08:58:32;;;;;;;18.60;9.00;;;;;;;12.35;30.94;102594.50;107813;1243;60957;-71
2022/03/23 09:01:01;;;;;;;20.80;10.00;;;;;;;12.57;30.29;102588.84;107514;1243;75549;-70
2022/03/23 09:03:32;;;;;;;19.10;9.00;;;;;;;12.78;29.21;102582.20;107528;1243;73594;-69
2022/03/23 09:06:02;;;;;;;19.20;9.20;;;;;;;12.94;30.07;102586.39;107340;1244;71126;-71
2022/03/23 09:08:38;;;;;;;17.60;9.90;;;;;;;13.04;29.95;102584.86;107581;1244;72882;-70
2022/03/23 09:11:07;;;;;;;16.30;8.20;;;;;;;12.91;29.82;102580.42;107736;1243;61700;-71
2022/03/23 09:13:38;;;;;;;15.90;8.40;;;;;;;12.98;28.98;102578.48;107622;1243;59908;-71
2022/03/23 09:16:08;;;;;;;17.50;7.20;;;;;;;13.10;30.16;102577.85;107502;1244;74494;-69
2022/03/23 09:18:37;;;;;;;15.30;7.20;;;;;;;13.28;28.78;102568.02;107673;1243;73784;-70
2022/03/23 09:21:06;;;;;;;11.90;6.70;;;;;;;13.34;28.73;102571.54;107602;1243;71060;-71
2022/03/23 09:23:36;;;;;;;16.60;7.70;;;;;;;13.36;28.27;102571.29;107357;1246;71390;-70
2022/03/23 09:26:08;;;;;;;15.20;7.00;;;;;;;13.46;28.32;102569.45;107491;1245;61399;-72
2022/03/23 09:28:38;;;;;;;14.50;7.20;;;;;;;13.61;28.75;102566.73;107687;1244;61078;-70
2022/03/23 09:31:07;;;;;;;14.90;6.50;;;;;;;13.76;28.89;102562.39;107556;1243;76203;-70
2022/03/23 09:33:36;;;;;;;15.70;6.80;;;;;;;13.82;27.26;102552.77;107816;1244;71389;-70
2022/03/23 09:37:47;;;;;;;14.40;6.80;;;;;;;14.01;27.92;102550.95;107564;1244;71027;-70
2022/03/23 09:38:55;;;;;;;17.30;7.50;;;;;;;14.06;27.62;102555.42;107656;1243;73710;-71
2022/03/23 09:41:25;;;;;;;14.10;5.90;;;;;;;13.99;27.15;102549.49;107631;1243;60113;-69
2022/03/23 09:43:55;;;;;;;13.90;6.80;;;;;;;14.12;26.89;102541.77;107647;1245;60498;-70
2022/03/23 09:46:25;;;;;;;13.20;6.10;;;;;;;14.08;27.25;102540.05;107563;1244;75483;-71
2022/03/23 09:48:54;;;;;;;16.70;7.00;;;;;;;14.21;26.56;102530.02;107833;1243;70550;-71
2022/03/23 09:51:24;;;;;;;19.60;7.90;;;;;;;14.23;26.72;102530.24;107785;1243;70909;-70
2022/03/23 09:53:53;;;;;;;11.70;5.50;;;;;;;14.27;26.56;102532.64;107779;1243;74749;-71
2022/03/23 09:56:22;;;;;;;10.20;5.40;;;;;;;14.34;26.66;102525.70;107564;1246;59685;-70
2022/03/23 09:58:51;;;;;;;13.50;5.90;;;;;;;14.42;25.72;102525.79;107810;1244;59610;-71
2022/03/23 10:01:33;;;;;;;12.50;6.60;;;;;;;14.44;25.14;102522.48;107674;1245;74453;-71
2022/03/23 10:04:12;;;;;;;13.30;6.50;;;;;;;14.58;26.03;102514.45;107703;1244;71937;-74
2022/03/23 10:06:59;;;;;;;16.30;7.20;;;;;;;14.65;26.15;102509.85;107807;1244;69493;-71
2022/03/23 10:10:06;;;;;;;17.60;8.60;;;;;;;14.73;25.68;102506.74;107707;1243;73928;-71
2022/03/23 10:12:59;;;;;;;14.40;6.60;;;;;;;14.85;25.63;102500.73;107706;1243;61810;-70
2022/03/23 10:16:05;;;;;;;17.40;8.70;;;;;;;14.75;25.35;102496.05;107576;1245;61815;-71
2022/03/23 10:18:59;;;;;;;17.20;8.50;;;;;;;14.97;25.18;102494.56;107586;1246;72516;-70
2022/03/23 10:21:37;;;;;;;17.40;8.00;;;;;;;14.93;25.05;102486.34;107651;1243;70100;-70
2022/03/23 10:24:06;;;;;;;14.90;7.60;;;;;;;15.21;25.01;102481.95;107817;1243;70142;-70
2022/03/23 10:26:40;;;;;;;15.60;7.00;;;;;;;15.38;24.98;102474.02;107886;1243;71169;-70
2022/03/23 10:29:25;;;;;;;15.20;8.00;;;;;;;15.25;24.18;102468.87;107950;1244;59691;-70
2022/03/23 10:32:10;;;;;;;16.50;8.30;;;;;;;15.10;24.08;102456.65;107599;1246;58940;-70
2022/03/23 10:34:48;;;;;;;16.10;8.20;;;;;;;15.32;24.34;102455.11;107498;1246;75501;-71
2022/03/23 10:37:33;;;;;;;16.60;8.80;;;;;;;15.72;24.52;102456.33;107561;1244;71542;-69
2022/03/23 10:40:14;;;;;;;14.50;8.60;;;;;;;16.20;23.54;102447.86;107663;1244;69139;-70
2022/03/23 10:42:48;;;;;;;16.30;8.80;;;;;;;16.60;23.56;102439.27;107774;1243;75147;-70
2022/03/23 10:45:20;;;;;;;15.10;8.90;;;;;;;16.75;22.82;102436.27;107624;1243;61315;-70
2022/03/23 10:47:50;;;;;;;16.60;8.40;;;;;;;17.22;23.55;102433.09;107850;1243;60547;-69
2022/03/23 10:50:24;;;;;;;13.60;8.60;;;;;;;17.39;22.53;102425.06;107824;1244;74416;-70
2022/03/23 10:53:06;;;;;;;17.80;9.40;;;;;;;17.49;22.13;102421.73;107747;1244;71948;-68
2022/03/23 10:55:47;;;;;;;17.70;9.20;;;;;;;18.05;22.34;102414.16;107863;1243;69217;-71
2022/03/23 10:58:25;;;;;;;16.60;9.20;;;;;;;17.56;21.40;102404.60;107650;1243;71256;-70
2022/03/23 11:01:01;;;;;;;18.50;9.30;;;;;;;17.98;22.19;102394.08;107802;1243;61503;-71
2022/03/23 11:03:48;;;;;;;21.00;9.40;;;;;;;17.98;21.50;102390.73;107774;1243;61054;-71
2022/03/23 11:06:27;;;;;;;23.40;10.00;;;;;;;18.09;21.71;102387.20;107922;1243;72917;-71
2022/03/23 11:15:46;;;;;;;20.80;10.00;;;;;;;18.27;21.45;102381.95;107723;1243;71424;-70
2022/03/23 11:18:07;;;;;;;21.00;10.00;;;;;;;18.58;20.58;102375.03;107754;1244;61269;-71
2022/03/23 11:20:49;;;;;;;18.20;9.50;;;;;;;18.71;20.68;102368.00;107940;1243;60111;-71
2022/03/23 11:23:23;;;;;;;17.80;10.40;;;;;;;18.61;20.12;102364.94;107864;1243;72516;-71
2022/03/23 11:25:57;;;;;;;15.10;9.40;;;;;;;18.16;20.55;102353.02;107777;1244;72260;-70
2022/03/23 11:28:32;;;;;;;19.50;10.00;;;;;;;18.93;20.36;102355.30;107797;1243;69866;-71
2022/03/23 11:31:11;;;;;;;18.60;10.10;;;;;;;19.00;19.97;102347.98;107777;1244;74354;-70
2022/03/23 11:33:44;;;;;;;16.00;9.70;;;;;;;19.15;19.84;102341.48;107872;1243;61748;-72
2022/03/23 11:36:13;;;;;;;19.60;11.20;;;;;;;19.07;19.63;102341.95;107856;1244;62637;-73
2022/03/23 11:38:42;;;;;;;16.70;11.50;;;;;;;18.63;19.81;102341.84;107888;1244;73260;-72
2022/03/23 11:41:14;;;;;;;17.80;11.50;;;;;;;19.26;19.83;102336.83;108035;1243;70736;-71